DFFD

Ouagadougou Airport

Ouagadougou, Burkina Faso
TAF DFFD 210500Z 2106/2212 VRB08KT 8000 NSC PROB30 TEMPO 2115/2124 4000 TSRA SCT026 FEW040CB
Issued Valid From Valid To
Apr-21 @ 05:00 UTC
(5 hours ago)
Apr-21 @ 06:00 UTC
(4 hours ago)
Apr-22 @ 12:00 UTC
(-1 days ago)
Apr-21 @ 06:00 to Apr-22 @ 12:00
TAF DFFD 210500Z 2106/2212 VRB08KT 8000 NSC
Wind Visibility Clouds
Variable at 8 knots 7,998 meters
  • No significant clouds
Temporary  (Probability 30%) Apr-21 @ 15:00 to Apr-22 @ 00:00
PROB30 TEMPO 2115/2124 4000 TSRA SCT026 FEW040CB
Visibility Clouds Conditions
4,007 meters
  • Scattered at 2,600' AGL
  • Few at 4,000' AGL
  • Thunderstorm
  • Rain
TAF DFFD 210500Z 2106/2212 VRB08KT 8000 NSC PROB30 TEMPO 2115/2124 4000 TSRA SCT026 FEW040CB
Issued Apr-21 @ 05:00 UTC
(5 hours ago)
Valid From Apr-21 @ 06:00 UTC
(4 hours ago)
Valid To Apr-22 @ 12:00 UTC
(-1 days ago)
Apr-21 @ 06:00 - Apr-22 @ 12:00
Wind Visibility
Variable at 8 knots 7,998 meters
Clouds
  • No significant clouds
Probability 30% Temporary Apr-21 @ 15:00 - Apr-22 @ 00:00
Clouds
  • Scattered at 2,600' AGL
  • Few at 4,000' AGL
Conditions
  • Thunderstorm
  • Rain